createdAt,value
2017-10-17T00:00:18.969Z,0
2017-10-17T00:01:18.973Z,0
2017-10-17T00:02:18.974Z,0
2017-10-17T00:03:18.980Z,0
2017-10-17T00:04:18.974Z,0
2017-10-17T00:05:18.982Z,0
2017-10-17T00:06:18.977Z,0
2017-10-17T00:07:18.985Z,0
2017-10-17T00:08:18.972Z,0
2017-10-17T00:09:18.978Z,0
2017-10-17T00:10:18.971Z,0
2017-10-17T00:11:18.970Z,0
2017-10-17T00:12:18.978Z,0
2017-10-17T00:13:18.976Z,0
2017-10-17T00:14:18.973Z,0
2017-10-17T00:15:18.966Z,0
2017-10-17T00:16:18.972Z,0
2017-10-17T00:17:18.966Z,0
2017-10-17T00:18:18.977Z,0
2017-10-17T00:19:18.980Z,0
2017-10-17T00:20:18.969Z,0
2017-10-17T00:21:18.973Z,0
2017-10-17T00:22:19.009Z,0
2017-10-17T00:23:18.969Z,0
2017-10-17T00:24:18.963Z,0
2017-10-17T00:25:18.972Z,0
2017-10-17T00:26:18.975Z,0
2017-10-17T00:27:18.976Z,0
2017-10-17T00:28:18.972Z,0
2017-10-17T00:29:18.972Z,0
2017-10-17T00:30:18.975Z,0
2017-10-17T00:31:18.973Z,0
2017-10-17T00:32:18.973Z,0
2017-10-17T00:33:18.967Z,0
2017-10-17T00:34:18.963Z,0
2017-10-17T00:35:19.007Z,0
2017-10-17T00:36:18.979Z,0
2017-10-17T00:37:18.968Z,0
2017-10-17T00:38:18.969Z,0
2017-10-17T00:39:18.966Z,0
2017-10-17T00:40:18.968Z,0
2017-10-17T00:41:18.973Z,0
2017-10-17T00:42:18.960Z,0
2017-10-17T00:43:18.975Z,0
2017-10-17T00:44:18.973Z,0
2017-10-17T00:45:18.979Z,0
2017-10-17T00:46:18.963Z,0
2017-10-17T00:47:18.965Z,0
2017-10-17T00:48:18.954Z,0
2017-10-17T00:49:18.973Z,0
2017-10-17T00:50:18.973Z,0
2017-10-17T00:51:18.974Z,0
2017-10-17T00:52:18.971Z,0
2017-10-17T00:53:18.959Z,0
2017-10-17T00:54:19.013Z,0
2017-10-17T00:55:18.962Z,0
2017-10-17T00:56:18.954Z,0
2017-10-17T00:57:18.967Z,0
2017-10-17T00:58:19.007Z,0
2017-10-17T00:59:19.009Z,0
2017-10-17T01:00:18.966Z,0
2017-10-17T01:01:18.959Z,0
2017-10-17T01:02:18.962Z,0
2017-10-17T01:03:18.957Z,0
2017-10-17T01:04:19.021Z,0
2017-10-17T01:05:18.967Z,0
2017-10-17T01:06:18.960Z,0
2017-10-17T01:07:18.964Z,0
2017-10-17T01:08:18.964Z,0
2017-10-17T01:09:19.012Z,0
2017-10-17T01:10:18.954Z,0
2017-10-17T01:11:18.964Z,0
2017-10-17T01:12:18.960Z,0
2017-10-17T01:13:18.961Z,0
2017-10-17T01:14:19.028Z,0
2017-10-17T01:15:18.948Z,0
2017-10-17T01:16:18.950Z,0
2017-10-17T01:17:18.954Z,0
2017-10-17T01:18:18.962Z,0
2017-10-17T01:19:19.000Z,0
2017-10-17T01:20:18.950Z,0
2017-10-17T01:21:18.955Z,0
2017-10-17T01:22:18.942Z,0
2017-10-17T01:23:18.959Z,0
2017-10-17T01:24:19.033Z,0
2017-10-17T01:25:18.955Z,0
2017-10-17T01:26:18.958Z,0
2017-10-17T01:27:18.952Z,0
2017-10-17T01:28:18.942Z,0
2017-10-17T01:29:19.015Z,0
2017-10-17T01:30:18.948Z,0
2017-10-17T01:31:18.953Z,0
2017-10-17T01:32:18.955Z,0
2017-10-17T01:33:18.944Z,0
2017-10-17T01:34:19.001Z,0
2017-10-17T01:35:18.949Z,0
2017-10-17T01:36:18.955Z,0
2017-10-17T01:37:18.956Z,0
2017-10-17T01:38:18.942Z,0
2017-10-17T01:39:18.999Z,0
2017-10-17T01:40:18.951Z,0
2017-10-17T01:41:18.963Z,0
2017-10-17T01:42:18.940Z,0
2017-10-17T01:43:18.943Z,0
2017-10-17T01:44:18.948Z,0
2017-10-17T01:45:18.942Z,0
2017-10-17T01:46:18.951Z,0
2017-10-17T01:47:18.942Z,0
2017-10-17T01:48:18.935Z,0
2017-10-17T01:49:18.947Z,0
2017-10-17T01:50:18.949Z,0
2017-10-17T01:51:18.950Z,0
2017-10-17T01:52:18.949Z,0
2017-10-17T01:53:18.948Z,0
2017-10-17T01:54:18.948Z,0
2017-10-17T01:55:18.949Z,0
2017-10-17T01:56:18.955Z,0
2017-10-17T01:57:18.945Z,0
2017-10-17T01:58:18.954Z,0
2017-10-17T01:59:18.932Z,0
2017-10-17T02:00:18.941Z,0
2017-10-17T02:01:18.936Z,0
2017-10-17T02:02:18.944Z,0
2017-10-17T02:03:18.937Z,0
2017-10-17T02:04:18.942Z,0
2017-10-17T02:05:18.934Z,0
2017-10-17T02:06:18.942Z,0
2017-10-17T02:07:18.945Z,0
2017-10-17T02:08:18.935Z,0
2017-10-17T02:09:18.945Z,0
2017-10-17T02:10:18.927Z,0
2017-10-17T02:11:18.947Z,0
2017-10-17T02:12:18.943Z,0
2017-10-17T02:13:18.943Z,0
2017-10-17T02:14:18.941Z,0
2017-10-17T02:15:18.941Z,0
2017-10-17T02:16:18.943Z,0
2017-10-17T02:17:18.933Z,0
2017-10-17T02:18:18.936Z,0
2017-10-17T02:19:18.943Z,0
2017-10-17T02:20:18.937Z,0
2017-10-17T02:21:18.938Z,0
2017-10-17T02:22:18.933Z,0
2017-10-17T02:23:18.939Z,0
2017-10-17T02:24:18.931Z,0
2017-10-17T02:25:18.928Z,0
2017-10-17T02:26:18.938Z,0
2017-10-17T02:27:18.929Z,0
2017-10-17T02:28:18.936Z,0
2017-10-17T02:29:18.925Z,0
2017-10-17T02:30:18.942Z,0
2017-10-17T02:31:18.931Z,0
2017-10-17T02:32:18.945Z,0
2017-10-17T02:33:18.936Z,0
2017-10-17T02:34:18.937Z,0
2017-10-17T02:35:18.976Z,0
2017-10-17T02:36:18.932Z,0
2017-10-17T02:37:18.935Z,0
2017-10-17T02:38:18.931Z,0
2017-10-17T02:39:18.946Z,0
2017-10-17T02:40:18.979Z,0
2017-10-17T02:41:18.930Z,0
2017-10-17T02:42:18.926Z,0
2017-10-17T02:43:18.932Z,0
2017-10-17T02:44:18.931Z,0
2017-10-17T02:45:18.976Z,0
2017-10-17T02:46:18.935Z,0
2017-10-17T02:47:18.920Z,0
2017-10-17T02:48:18.920Z,0
2017-10-17T02:49:18.929Z,0
2017-10-17T02:50:18.971Z,0
2017-10-17T02:51:18.928Z,0
2017-10-17T02:52:18.928Z,0
2017-10-17T02:53:18.923Z,0
2017-10-17T02:54:18.926Z,0
2017-10-17T02:55:19.001Z,0
2017-10-17T02:56:18.926Z,0
2017-10-17T02:57:18.928Z,0
2017-10-17T02:58:18.923Z,0
2017-10-17T02:59:18.930Z,0
2017-10-17T03:00:18.993Z,0
2017-10-17T03:01:18.934Z,0
2017-10-17T03:02:18.921Z,0
2017-10-17T03:03:18.915Z,0
2017-10-17T03:04:18.917Z,0
2017-10-17T03:05:18.962Z,0
2017-10-17T03:10:41.443Z,0
2017-10-17T03:11:18.926Z,0
2017-10-17T03:12:18.916Z,0
2017-10-17T03:13:18.912Z,0
2017-10-17T03:14:18.923Z,0
2017-10-17T03:15:18.909Z,0
2017-10-17T03:16:18.958Z,0
2017-10-17T03:17:18.919Z,0
2017-10-17T03:18:18.944Z,0
2017-10-17T03:19:18.914Z,0
2017-10-17T03:20:18.910Z,0
2017-10-17T03:21:18.983Z,0
2017-10-17T03:22:18.974Z,0
2017-10-17T03:23:18.916Z,0
2017-10-17T03:24:18.940Z,0
2017-10-17T03:25:18.918Z,0
2017-10-17T03:26:18.977Z,0
2017-10-17T03:27:18.912Z,0
2017-10-17T03:28:18.911Z,0
2017-10-17T03:29:18.913Z,0
2017-10-17T03:30:18.920Z,0
2017-10-17T03:31:18.979Z,0
2017-10-17T03:32:18.912Z,0
2017-10-17T03:33:18.909Z,0
2017-10-17T03:34:18.912Z,0
2017-10-17T03:35:18.906Z,0
2017-10-17T03:36:18.994Z,0
2017-10-17T03:37:18.901Z,0
2017-10-17T03:38:18.920Z,0
2017-10-17T03:39:18.911Z,0
2017-10-17T03:40:18.902Z,0
2017-10-17T03:41:18.953Z,0
2017-10-17T03:42:18.900Z,0
2017-10-17T03:43:18.894Z,0
2017-10-17T03:44:18.900Z,0
2017-10-17T03:45:18.909Z,0
2017-10-17T03:46:18.978Z,0
2017-10-17T03:47:18.903Z,0
2017-10-17T03:48:18.910Z,0
2017-10-17T03:49:18.890Z,0
2017-10-17T03:50:18.907Z,0
2017-10-17T03:51:18.980Z,0
2017-10-17T03:52:18.907Z,0
2017-10-17T03:53:18.905Z,0
2017-10-17T03:54:18.899Z,0.1
2017-10-17T03:55:18.913Z,0.1
2017-10-17T03:56:18.959Z,0.1
2017-10-17T03:57:18.899Z,0.1
2017-10-17T03:58:18.905Z,0.1
2017-10-17T03:59:18.908Z,0.1
2017-10-17T04:00:18.891Z,0.1
2017-10-17T04:01:18.955Z,0.1
2017-10-17T04:02:18.895Z,0.1
2017-10-17T04:03:18.896Z,0.1
2017-10-17T04:04:18.907Z,0.1
2017-10-17T04:05:18.905Z,0
2017-10-17T04:06:18.904Z,0
2017-10-17T04:07:18.910Z,0
2017-10-17T04:08:18.901Z,0
2017-10-17T04:09:18.902Z,0
2017-10-17T04:10:18.901Z,0
2017-10-17T04:11:18.907Z,0
2017-10-17T04:12:18.896Z,0
2017-10-17T04:13:18.889Z,0
2017-10-17T04:14:18.893Z,0
2017-10-17T04:15:18.906Z,0
2017-10-17T04:16:18.892Z,0
2017-10-17T04:17:18.896Z,0
2017-10-17T04:18:18.890Z,0
2017-10-17T04:19:18.895Z,0
2017-10-17T04:20:18.904Z,0
2017-10-17T04:21:18.888Z,0
2017-10-17T04:22:18.901Z,0
2017-10-17T04:23:18.893Z,0
2017-10-17T04:24:18.891Z,0
2017-10-17T04:25:18.892Z,0
2017-10-17T04:26:18.901Z,0
2017-10-17T04:27:18.895Z,0
2017-10-17T04:28:18.896Z,0
2017-10-17T04:29:18.908Z,0
2017-10-17T04:30:18.897Z,0
2017-10-17T04:31:18.898Z,0
2017-10-17T04:32:18.896Z,0
2017-10-17T04:33:18.883Z,0
2017-10-17T04:34:18.885Z,0
2017-10-17T04:35:18.878Z,0
2017-10-17T04:36:18.895Z,0
2017-10-17T04:37:18.889Z,0
2017-10-17T04:38:18.898Z,0
2017-10-17T04:39:18.897Z,0
2017-10-17T04:40:18.881Z,0
2017-10-17T04:41:18.887Z,0
2017-10-17T04:42:18.893Z,0
2017-10-17T04:43:18.895Z,0
2017-10-17T04:44:18.879Z,0
2017-10-17T04:45:18.888Z,0
2017-10-17T04:46:18.888Z,0
2017-10-17T04:47:18.890Z,0
2017-10-17T04:48:18.904Z,0
2017-10-17T04:49:18.878Z,0
2017-10-17T04:50:18.879Z,0
2017-10-17T04:51:18.875Z,0
2017-10-17T04:52:18.880Z,0
2017-10-17T04:53:18.888Z,0
2017-10-17T04:54:18.880Z,0
2017-10-17T04:55:18.890Z,0
2017-10-17T04:56:18.925Z,0
2017-10-17T04:57:18.893Z,0
2017-10-17T04:58:18.889Z,0
2017-10-17T04:59:18.890Z,0
2017-10-17T05:00:18.877Z,0
2017-10-17T05:01:18.878Z,0
2017-10-17T05:02:18.881Z,0
2017-10-17T05:03:18.884Z,0
2017-10-17T05:04:18.886Z,0
2017-10-17T05:05:18.884Z,0
2017-10-17T05:06:18.884Z,0
2017-10-17T05:07:18.885Z,0
2017-10-17T05:08:18.878Z,0
2017-10-17T05:09:18.885Z,0
2017-10-17T05:10:18.881Z,0
2017-10-17T05:11:18.876Z,0
2017-10-17T05:12:18.881Z,0
2017-10-17T05:13:18.875Z,0
2017-10-17T05:14:18.889Z,0
2017-10-17T05:15:18.880Z,0
2017-10-17T05:16:18.890Z,0
2017-10-17T05:17:18.912Z,0
2017-10-17T05:18:18.866Z,0
2017-10-17T05:19:18.870Z,0
2017-10-17T05:20:18.869Z,0
2017-10-17T05:21:18.876Z,0
2017-10-17T05:22:18.910Z,0
2017-10-17T05:23:18.878Z,0
2017-10-17T05:24:18.878Z,0
2017-10-17T05:25:18.866Z,0
2017-10-17T05:26:18.863Z,0
2017-10-17T05:27:18.949Z,0
2017-10-17T05:28:18.867Z,0
2017-10-17T05:29:18.866Z,0
2017-10-17T05:30:18.873Z,0
2017-10-17T05:31:18.868Z,0
2017-10-17T05:32:18.912Z,0
2017-10-17T05:33:18.860Z,0
2017-10-17T05:34:18.884Z,0
2017-10-17T05:35:18.874Z,0
2017-10-17T05:36:18.864Z,0
2017-10-17T05:37:18.872Z,0
2017-10-17T05:38:18.872Z,0
2017-10-17T05:39:18.872Z,0
2017-10-17T05:40:18.868Z,0
2017-10-17T05:41:18.861Z,0
2017-10-17T05:42:18.863Z,0
2017-10-17T05:43:18.868Z,0
2017-10-17T05:44:18.858Z,0
2017-10-17T05:45:18.917Z,0
2017-10-17T05:46:18.869Z,0
2017-10-17T05:47:18.868Z,0
2017-10-17T05:48:18.902Z,0
2017-10-17T05:49:18.866Z,0
2017-10-17T05:50:18.867Z,0
2017-10-17T05:51:18.869Z,0
2017-10-17T05:52:18.872Z,0
2017-10-17T05:53:18.901Z,0
2017-10-17T05:54:18.870Z,0
2017-10-17T05:55:18.864Z,0
2017-10-17T05:56:18.864Z,0
2017-10-17T05:57:18.864Z,0
2017-10-17T05:58:18.938Z,0
2017-10-17T05:59:18.864Z,0
2017-10-17T06:00:18.865Z,0
2017-10-17T06:01:18.864Z,0
2017-10-17T06:02:18.863Z,0
2017-10-17T06:03:18.909Z,0
2017-10-17T06:04:18.867Z,0
2017-10-17T06:05:18.863Z,0
2017-10-17T06:06:18.863Z,0
2017-10-17T06:07:18.864Z,0
2017-10-17T06:08:18.932Z,0
2017-10-17T06:09:18.856Z,0
2017-10-17T06:10:18.864Z,0
2017-10-17T06:11:18.859Z,0
2017-10-17T06:12:18.862Z,0
2017-10-17T06:13:18.906Z,0
2017-10-17T06:14:18.858Z,0
2017-10-17T06:15:18.854Z,0
2017-10-17T06:16:18.857Z,0
2017-10-17T06:17:18.851Z,0
2017-10-17T06:18:18.928Z,0
2017-10-17T06:19:18.858Z,0
2017-10-17T06:20:18.851Z,0
2017-10-17T06:21:18.864Z,0
2017-10-17T06:22:18.855Z,0
2017-10-17T06:23:18.923Z,0
2017-10-17T06:24:18.856Z,0
2017-10-17T06:25:18.856Z,0
2017-10-17T06:26:18.858Z,0
2017-10-17T06:27:18.855Z,0
2017-10-17T06:28:18.846Z,0
2017-10-17T06:29:18.849Z,0
2017-10-17T06:30:18.855Z,0
2017-10-17T06:31:18.844Z,0
2017-10-17T06:32:18.841Z,0
2017-10-17T06:33:18.851Z,0
2017-10-17T06:34:18.851Z,0
2017-10-17T06:35:18.851Z,0
2017-10-17T06:36:18.852Z,0
2017-10-17T06:37:18.897Z,0
2017-10-17T06:38:18.851Z,0
2017-10-17T06:39:18.850Z,0
2017-10-17T06:40:18.853Z,0.1
2017-10-17T06:41:18.849Z,0.1
2017-10-17T06:42:18.850Z,0.1
2017-10-17T06:43:18.852Z,0.1
2017-10-17T06:44:18.843Z,0.1
2017-10-17T06:45:18.848Z,0.1
2017-10-17T06:46:18.849Z,0.1
2017-10-17T06:47:18.855Z,0.1
2017-10-17T06:48:18.855Z,0.1
2017-10-17T06:49:18.844Z,0.1
2017-10-17T06:50:18.846Z,0.1
2017-10-17T06:51:18.852Z,0.1
2017-10-17T06:52:18.846Z,0
2017-10-17T06:53:18.887Z,0
2017-10-17T06:54:18.915Z,0
2017-10-17T06:55:18.838Z,0
2017-10-17T06:56:18.850Z,0
2017-10-17T06:57:18.841Z,0
2017-10-17T06:58:18.890Z,0
2017-10-17T06:59:18.888Z,0
2017-10-17T07:00:18.848Z,0
2017-10-17T07:01:18.850Z,0
2017-10-17T07:02:18.849Z,0
2017-10-17T07:03:18.840Z,0
2017-10-17T07:04:18.845Z,0
2017-10-17T07:05:18.842Z,0
2017-10-17T07:06:18.846Z,0
2017-10-17T07:07:18.843Z,0
2017-10-17T07:08:18.849Z,0
2017-10-17T07:09:18.845Z,0
2017-10-17T07:10:18.830Z,0
2017-10-17T07:11:18.849Z,0
2017-10-17T07:12:18.841Z,0
2017-10-17T07:13:18.845Z,0
2017-10-17T07:14:18.846Z,0
2017-10-17T07:15:18.842Z,0
2017-10-17T07:16:18.854Z,0
2017-10-17T07:17:18.844Z,0
2017-10-17T07:18:18.844Z,0
2017-10-17T07:19:18.839Z,0
2017-10-17T07:20:18.833Z,0
2017-10-17T07:21:18.844Z,0
2017-10-17T07:22:18.838Z,0
2017-10-17T07:23:18.837Z,0
2017-10-17T07:24:18.840Z,0
2017-10-17T07:25:18.843Z,0
2017-10-17T07:26:18.829Z,0
2017-10-17T07:27:18.840Z,0
2017-10-17T07:28:18.837Z,0
2017-10-17T07:29:18.840Z,0
2017-10-17T07:30:18.838Z,0
2017-10-17T07:31:18.839Z,0
2017-10-17T07:32:18.838Z,0
2017-10-17T07:33:18.839Z,0
2017-10-17T07:34:18.850Z,0
2017-10-17T07:35:18.847Z,0
2017-10-17T07:36:18.836Z,0
2017-10-17T07:37:18.838Z,0
2017-10-17T07:38:18.831Z,0
2017-10-17T07:39:18.835Z,0
2017-10-17T07:40:18.840Z,0
2017-10-17T07:41:18.842Z,0
2017-10-17T07:42:18.836Z,0.1
2017-10-17T07:43:18.835Z,0.1
2017-10-17T07:44:18.828Z,0.1
2017-10-17T07:45:18.842Z,0.1
2017-10-17T07:46:19.642Z,0.1
2017-10-17T07:47:18.842Z,0.1
2017-10-17T07:48:18.839Z,0.1
2017-10-17T07:49:18.834Z,0.1
2017-10-17T07:50:18.828Z,0.1
2017-10-17T07:51:18.832Z,0.1
2017-10-17T07:52:18.843Z,0.1
2017-10-17T07:53:18.828Z,0.1
2017-10-17T07:54:18.841Z,0.1
2017-10-17T07:55:18.840Z,0.1
2017-10-17T07:56:18.839Z,0.1
2017-10-17T07:57:18.830Z,0.1
2017-10-17T07:58:18.841Z,0
2017-10-17T07:59:18.837Z,0
2017-10-17T08:00:18.837Z,0
2017-10-17T08:01:18.835Z,0
2017-10-17T08:02:18.839Z,0
2017-10-17T08:03:18.838Z,0
2017-10-17T08:04:18.840Z,0
2017-10-17T08:05:18.829Z,0
2017-10-17T08:06:18.842Z,0
2017-10-17T08:07:18.884Z,0
2017-10-17T08:08:18.837Z,0
2017-10-17T08:09:18.852Z,0
2017-10-17T08:10:18.904Z,0
2017-10-17T08:11:18.838Z,0
2017-10-17T08:12:18.828Z,0
2017-10-17T08:13:18.833Z,0
2017-10-17T08:14:18.835Z,0
2017-10-17T08:15:18.880Z,0
2017-10-17T08:16:18.831Z,0
2017-10-17T08:17:18.835Z,0
2017-10-17T08:18:18.835Z,0
2017-10-17T08:19:18.833Z,0.1
2017-10-17T08:20:18.878Z,0.2
2017-10-17T08:21:18.834Z,0.2
2017-10-17T08:22:18.828Z,0.2
2017-10-17T08:23:18.835Z,0.2
2017-10-17T08:24:18.832Z,0.1
2017-10-17T08:25:18.835Z,0.1
2017-10-17T08:26:18.846Z,0.1
2017-10-17T08:27:18.834Z,0.1
2017-10-17T08:28:18.830Z,0.1
2017-10-17T08:29:18.844Z,0.1
2017-10-17T08:30:18.834Z,0.1
2017-10-17T08:31:18.831Z,0.1
2017-10-17T08:32:18.833Z,0.1
2017-10-17T08:33:18.836Z,0.1
2017-10-17T08:34:18.839Z,0.1
2017-10-17T08:35:18.841Z,0
2017-10-17T08:36:18.839Z,0
2017-10-17T08:37:18.834Z,0
2017-10-17T08:38:18.836Z,0
2017-10-17T08:39:18.836Z,0
2017-10-17T08:40:18.838Z,0.7
2017-10-17T08:41:18.836Z,1.1
2017-10-17T08:42:18.855Z,1.4
2017-10-17T08:43:18.839Z,2
2017-10-17T08:44:18.835Z,2.5
2017-10-17T08:45:18.834Z,3
2017-10-17T08:46:18.979Z,3
2017-10-17T08:47:19.697Z,3.1
2017-10-17T08:48:23.767Z,2.9
2017-10-17T08:49:18.849Z,2.9
2017-10-17T08:50:19.682Z,2.9
2017-10-17T08:51:18.835Z,2.8
2017-10-17T08:52:18.834Z,3.1
2017-10-17T08:53:18.841Z,3.3
2017-10-17T08:54:18.844Z,3.4
2017-10-17T08:55:18.833Z,3.8
2017-10-17T08:56:18.841Z,4.4
2017-10-17T08:57:18.826Z,4.6
2017-10-17T08:58:18.838Z,4.8
2017-10-17T08:59:18.840Z,4.9
2017-10-17T09:00:18.834Z,5.5
2017-10-17T09:01:18.824Z,5.4
2017-10-17T09:02:18.841Z,5.8
2017-10-17T09:03:18.820Z,6
2017-10-17T09:04:18.839Z,5.6
2017-10-17T09:05:18.838Z,5.4
2017-10-17T09:06:18.837Z,5.3
2017-10-17T09:07:18.825Z,5.5
2017-10-17T09:08:18.827Z,5.8
2017-10-17T09:09:18.833Z,6
2017-10-17T09:10:18.828Z,5.8
2017-10-17T09:11:18.835Z,5.4
2017-10-17T09:12:18.836Z,5.1
2017-10-17T09:13:18.835Z,5.1
2017-10-17T09:14:18.828Z,4.6
2017-10-17T09:15:18.825Z,4.2
2017-10-17T09:16:18.825Z,3.8
2017-10-17T09:17:18.838Z,3.6
2017-10-17T09:18:18.827Z,3.4
2017-10-17T09:19:18.834Z,3.5
2017-10-17T09:20:18.833Z,3.8
2017-10-17T09:21:18.823Z,3.8
2017-10-17T09:22:18.831Z,3.9
2017-10-17T09:23:18.832Z,4.2
2017-10-17T09:24:18.829Z,4.2
2017-10-17T09:25:18.833Z,4
2017-10-17T09:26:18.828Z,4
2017-10-17T09:27:18.823Z,4.3
2017-10-17T09:28:18.841Z,4.3
2017-10-17T09:29:18.841Z,4.2
2017-10-17T09:30:18.823Z,4
2017-10-17T09:31:18.827Z,4.1
2017-10-17T09:32:18.825Z,4.1
2017-10-17T09:33:18.830Z,3.9
2017-10-17T09:34:18.839Z,3.8
2017-10-17T09:35:18.824Z,3.6
2017-10-17T09:36:18.883Z,4
2017-10-17T09:37:18.827Z,3.8
2017-10-17T09:38:18.838Z,3.6
2017-10-17T09:39:18.829Z,3.6
2017-10-17T09:40:18.840Z,3.4
2017-10-17T09:41:18.867Z,3.5
2017-10-17T09:42:18.837Z,3.3
2017-10-17T09:43:18.839Z,3.4
2017-10-17T09:44:18.835Z,3.3
2017-10-17T09:45:18.836Z,3.7
2017-10-17T09:46:18.879Z,3.7
2017-10-17T09:47:18.834Z,3.3
2017-10-17T09:48:20.891Z,3.4
2017-10-17T09:49:18.834Z,3.6
2017-10-17T09:50:18.834Z,3.7
2017-10-17T09:51:19.848Z,4
2017-10-17T09:52:18.834Z,4.7
2017-10-17T09:53:18.842Z,5.1
2017-10-17T09:54:18.834Z,5.1
2017-10-17T09:55:18.834Z,5
2017-10-17T09:56:18.902Z,4.7
2017-10-17T09:57:18.830Z,4.6
2017-10-17T09:58:18.836Z,4.9
2017-10-17T09:59:18.834Z,4.6
2017-10-17T10:00:18.831Z,4.4
2017-10-17T10:01:18.906Z,4.2
2017-10-17T10:02:18.835Z,3.9
2017-10-17T10:03:18.831Z,3.8
2017-10-17T10:04:18.840Z,3.9
2017-10-17T10:05:18.831Z,3.8
2017-10-17T10:06:18.898Z,3.9
2017-10-17T10:07:18.839Z,3.6
2017-10-17T10:08:18.832Z,3.6
2017-10-17T10:09:18.834Z,3.6
2017-10-17T10:10:18.836Z,3.4
2017-10-17T10:11:18.892Z,3.3
2017-10-17T10:12:18.838Z,3.2
2017-10-17T10:13:18.829Z,2.9
2017-10-17T10:14:18.835Z,3
2017-10-17T10:15:18.837Z,2.9
2017-10-17T10:16:18.907Z,3.1
2017-10-17T10:17:18.839Z,3.2
2017-10-17T10:18:18.825Z,3.2
2017-10-17T10:19:18.833Z,3
2017-10-17T10:20:18.831Z,2.8
2017-10-17T10:21:18.867Z,2.7
2017-10-17T10:22:18.822Z,2.8
2017-10-17T10:23:18.833Z,3
2017-10-17T10:24:18.833Z,2.8
2017-10-17T10:25:18.830Z,2.9
2017-10-17T10:26:18.830Z,2.8
2017-10-17T10:27:18.836Z,2.5
2017-10-17T10:28:18.827Z,2.4
2017-10-17T10:29:18.836Z,2.2
2017-10-17T10:30:18.833Z,2.7
2017-10-17T10:31:18.826Z,2.6
2017-10-17T10:32:18.830Z,2.8
2017-10-17T10:33:19.711Z,3.2
2017-10-17T10:34:18.833Z,3.2
2017-10-17T10:35:18.833Z,3.8
2017-10-17T10:36:18.832Z,4.4
2017-10-17T10:37:18.829Z,4.5
2017-10-17T10:38:19.816Z,4.7
2017-10-17T10:39:18.831Z,4.5
2017-10-17T10:40:18.837Z,4.6
2017-10-17T10:41:18.836Z,4.4
2017-10-17T10:42:18.830Z,5.2
2017-10-17T10:43:19.412Z,5.3
2017-10-17T10:44:18.825Z,5.1
2017-10-17T10:45:19.820Z,4.8
2017-10-17T10:46:18.824Z,5.2
2017-10-17T10:47:18.830Z,5.5
2017-10-17T10:48:20.967Z,6
2017-10-17T10:49:18.827Z,6.4
2017-10-17T10:50:18.827Z,6.6
2017-10-17T10:51:18.833Z,6.6
2017-10-17T10:52:18.829Z,7
2017-10-17T10:53:18.823Z,6.7
2017-10-17T10:54:18.818Z,6.4
2017-10-17T10:55:18.828Z,6.3
2017-10-17T10:56:18.833Z,6.3
2017-10-17T10:57:18.819Z,6
2017-10-17T10:58:18.833Z,5.6
2017-10-17T10:59:18.836Z,5.3
2017-10-17T11:00:18.828Z,4.8
2017-10-17T11:01:18.825Z,4.6
2017-10-17T11:02:18.832Z,5
2017-10-17T11:03:18.833Z,4.7
2017-10-17T11:04:18.827Z,5.2
2017-10-17T11:05:18.825Z,5.8
2017-10-17T11:06:18.836Z,6
2017-10-17T11:07:18.820Z,6
2017-10-17T11:08:18.832Z,6.2
2017-10-17T11:09:18.821Z,6.6
2017-10-17T11:10:18.819Z,6.8
2017-10-17T11:11:18.831Z,6.9
2017-10-17T11:12:18.833Z,6.7
2017-10-17T11:13:18.826Z,6.5
2017-10-17T11:14:18.830Z,6.2
2017-10-17T11:15:18.828Z,6.1
2017-10-17T11:16:18.824Z,6
2017-10-17T11:17:18.840Z,6.1
2017-10-17T11:18:18.820Z,5.6
2017-10-17T11:19:18.823Z,5.1
2017-10-17T11:20:18.829Z,4.8
2017-10-17T11:21:19.438Z,5.2
2017-10-17T11:22:18.826Z,5.4
2017-10-17T11:23:18.820Z,5.4
2017-10-17T11:24:18.823Z,5.8
2017-10-17T11:25:18.827Z,5.6
2017-10-17T11:26:18.829Z,5.9
2017-10-17T11:27:18.826Z,5.7
2017-10-17T11:28:18.828Z,5.4
2017-10-17T11:29:18.850Z,5.9
2017-10-17T11:30:18.834Z,6.1
2017-10-17T11:31:18.829Z,6.7
2017-10-17T11:32:18.834Z,6.6
2017-10-17T11:33:18.829Z,6.3
2017-10-17T11:34:19.486Z,5.8
2017-10-17T11:35:18.821Z,5.6
2017-10-17T11:36:18.831Z,5.9
2017-10-17T11:37:18.831Z,6.4
2017-10-17T11:38:18.831Z,6.5
2017-10-17T11:39:18.835Z,6
2017-10-17T11:40:19.468Z,5.7
2017-10-17T11:41:18.831Z,6.2
2017-10-17T11:42:18.831Z,6.4
2017-10-17T11:43:18.833Z,6.2
2017-10-17T11:44:18.835Z,6
2017-10-17T11:45:18.832Z,6
2017-10-17T11:46:18.840Z,5.9
2017-10-17T11:47:18.833Z,5.6
2017-10-17T11:48:18.834Z,5.7
2017-10-17T11:49:20.900Z,5.7
2017-10-17T11:50:18.830Z,5.5
2017-10-17T11:51:18.852Z,5.4
2017-10-17T11:52:18.832Z,5.3
2017-10-17T11:53:18.828Z,5.8
2017-10-17T11:54:18.830Z,6.1
2017-10-17T11:55:18.805Z,6.3
2017-10-17T11:56:18.829Z,6.2
2017-10-17T11:57:18.828Z,6.3
2017-10-17T11:58:18.819Z,6.3
2017-10-17T11:59:19.077Z,6.5
2017-10-17T12:00:19.254Z,6.3
2017-10-17T12:01:19.294Z,6
2017-10-17T12:02:19.855Z,6.1
2017-10-17T12:03:19.051Z,5.8
2017-10-17T12:04:20.140Z,5.5
2017-10-17T12:05:18.826Z,5.1
2017-10-17T12:06:20.914Z,5.3
2017-10-17T12:07:18.831Z,5.4
2017-10-17T12:08:18.825Z,4.9
2017-10-17T12:09:18.818Z,4.7
2017-10-17T12:10:18.824Z,4.7
2017-10-17T12:11:18.824Z,4.7
2017-10-17T12:12:18.882Z,4.6
2017-10-17T12:13:18.833Z,4.3
2017-10-17T12:14:29.553Z,4.4
2017-10-17T12:15:18.822Z,4
2017-10-17T12:16:20.438Z,4.3
2017-10-17T12:17:18.881Z,4
2017-10-17T12:18:19.519Z,4
2017-10-17T12:19:18.924Z,3.7
2017-10-17T12:20:18.822Z,3.6
2017-10-17T12:21:18.973Z,3.6
2017-10-17T12:22:19.884Z,3.8
2017-10-17T12:23:18.825Z,3.8
2017-10-17T12:24:18.887Z,4.6
2017-10-17T12:25:20.199Z,4.8
2017-10-17T12:26:18.843Z,4.5
2017-10-17T12:27:19.583Z,4.2
2017-10-17T12:28:18.814Z,4.3
2017-10-17T12:29:18.819Z,4.5
2017-10-17T12:30:18.924Z,4.5
2017-10-17T12:31:18.822Z,4.3
2017-10-17T12:32:19.411Z,5
2017-10-17T12:33:18.840Z,4.6
2017-10-17T12:34:20.904Z,4.8
2017-10-17T12:35:18.799Z,4.8
2017-10-17T12:36:18.801Z,5.3
2017-10-17T12:37:18.885Z,5.5
2017-10-17T12:38:20.019Z,5.2
2017-10-17T12:39:18.825Z,4.8
2017-10-17T12:40:18.810Z,4.9
2017-10-17T12:41:18.812Z,5.2
2017-10-17T12:42:18.899Z,5.3
2017-10-17T12:43:18.828Z,4.9
2017-10-17T12:44:18.823Z,4.7
2017-10-17T12:45:18.821Z,4.8
2017-10-17T12:46:18.845Z,4.6
2017-10-17T12:47:20.959Z,4.9
2017-10-17T12:48:19.823Z,4.7
2017-10-17T12:49:18.827Z,4.6
2017-10-17T12:50:18.839Z,4.8
2017-10-17T12:51:19.376Z,5.1
2017-10-17T12:52:19.879Z,4.6
2017-10-17T12:53:19.637Z,4.3
2017-10-17T12:54:18.916Z,4.7
2017-10-17T12:55:18.820Z,4.9
2017-10-17T12:56:18.829Z,4.6
2017-10-17T12:57:18.892Z,4.9
2017-10-17T12:58:18.819Z,4.7
2017-10-17T12:59:20.393Z,4.2
2017-10-17T13:00:19.480Z,3.8
2017-10-17T13:01:18.828Z,3.5
2017-10-17T13:02:18.870Z,3.1
2017-10-17T13:03:18.848Z,2.9
2017-10-17T13:04:19.775Z,2.7
2017-10-17T13:05:19.453Z,2.7
2017-10-17T13:06:18.819Z,2.6
2017-10-17T13:07:18.898Z,2.3
2017-10-17T13:08:18.826Z,2.4
2017-10-17T13:09:19.526Z,2.3
2017-10-17T13:10:18.835Z,2.1
2017-10-17T13:11:18.821Z,2.4
2017-10-17T13:12:18.903Z,2.2
2017-10-17T13:13:18.835Z,2.4
2017-10-17T13:14:18.951Z,2.4
2017-10-17T13:15:18.823Z,2.3
2017-10-17T13:16:18.846Z,2.2
2017-10-17T13:17:18.872Z,2
2017-10-17T13:18:18.830Z,1.8
2017-10-17T13:19:19.419Z,1.6
2017-10-17T13:20:18.841Z,1.5
2017-10-17T13:21:18.878Z,1.4
2017-10-17T13:22:18.891Z,1.3
2017-10-17T13:23:18.827Z,1.3
2017-10-17T13:24:18.827Z,1.3
2017-10-17T13:25:18.814Z,1.3
2017-10-17T13:26:18.828Z,1.3
2017-10-17T13:27:18.885Z,1.2
2017-10-17T13:28:18.810Z,1.1
2017-10-17T13:29:18.823Z,1.1
2017-10-17T13:30:19.329Z,1.1
2017-10-17T13:31:18.825Z,1.2
2017-10-17T13:32:18.849Z,1.2
2017-10-17T13:33:18.829Z,1.3
2017-10-17T13:34:18.820Z,1.8
2017-10-17T13:35:18.822Z,1.7
2017-10-17T13:36:18.812Z,1.5
2017-10-17T13:37:18.901Z,1.5
2017-10-17T13:38:19.342Z,1.3
2017-10-17T13:39:21.197Z,1.2
2017-10-17T13:40:18.810Z,1.6
2017-10-17T13:41:19.885Z,1.4
2017-10-17T13:42:18.891Z,1.5
2017-10-17T13:43:18.828Z,1.5
2017-10-17T13:44:18.829Z,1.4
2017-10-17T13:45:18.832Z,1.3
2017-10-17T13:46:29.291Z,1.3
2017-10-17T13:47:18.874Z,1.7
2017-10-17T13:48:18.824Z,1.9
2017-10-17T13:49:18.829Z,1.9
2017-10-17T13:50:18.813Z,1.9
2017-10-17T13:51:18.829Z,1.7
2017-10-17T13:52:19.412Z,1.7
2017-10-17T13:53:18.818Z,1.9
2017-10-17T13:54:18.826Z,2.3
2017-10-17T13:55:18.825Z,2.1
2017-10-17T13:56:18.825Z,1.9
2017-10-17T13:57:18.926Z,2.5
2017-10-17T13:58:19.514Z,2.4
2017-10-17T13:59:18.829Z,2.4
2017-10-17T14:00:18.827Z,2.1
2017-10-17T14:01:18.959Z,2.4
2017-10-17T14:02:18.806Z,2.3
2017-10-17T14:03:18.813Z,2
2017-10-17T14:04:18.828Z,1.9
2017-10-17T14:05:18.825Z,1.7
2017-10-17T14:06:18.887Z,1.5
2017-10-17T14:07:18.828Z,1.6
2017-10-17T14:08:18.806Z,1.5
2017-10-17T14:09:18.820Z,1.4
2017-10-17T14:10:18.829Z,1.3
2017-10-17T14:11:18.828Z,1.2
2017-10-17T14:12:18.820Z,1.3
2017-10-17T14:13:18.824Z,1.3
2017-10-17T14:14:18.832Z,1.5
2017-10-17T14:15:18.821Z,1.5
2017-10-17T14:16:18.822Z,1.6
2017-10-17T14:17:18.820Z,1.5
2017-10-17T14:18:18.812Z,1.5
2017-10-17T14:19:18.833Z,1.3
2017-10-17T14:20:18.822Z,1.2
2017-10-17T14:21:18.821Z,1.1
2017-10-17T14:22:18.822Z,1
2017-10-17T14:23:18.808Z,0.9
2017-10-17T14:24:18.854Z,0.8